Terminal Aerodrome Forecast
Issued by NWS

Home | Current Version | Previous Version | Text Only | Print | Product List | Glossary On
Versions: 1 2 3 4 5 6 7 8 9 10 11 12 13 14 15 16 17 18 19
878
FTUS41 KPBZ 291520 AAC
TAFFKL
TAF AMD
KFKL 291520Z 2915/3012 18004KT P6SM VCSH OVC008
      TEMPO 2915/2917 1SM -DZ OVC004
     FM291700 28004KT P6SM -SHRA VCTS OVC025CB
     FM292200 36004KT P6SM OVC015
      AMD LTD TO CLD VIS AND WIND=

USA.gov is the U.S. government's official web portal to all federal, state and local government web resources and services.